Time;durP1;ratioP1;P1;durP2;ratioP2;P2;SDS_P1;SDS_P2;PMS_P1;PMS_P2;Temp;Humidity;BMP_temperature;BMP_pressure;BME280_temperature;BME280_humidity;BME280_pressure;Samples;Min_cycle;Max_cycle;Signal;HPM_P1;HPM_P2
2021/05/03 05:02:13;;;;;;;7.30;3.50;;;;;;;21.36;97.71;99680.27;1746337;80;21555;-67
2021/05/03 05:04:42;;;;;;;8.60;3.77;;;;;;;21.76;88.34;99675.92;1746644;80;21224;-66
2021/05/03 05:07:10;;;;;;;6.10;3.73;;;;;;;22.10;79.72;99669.41;1741707;80;21167;-67
2021/05/03 05:09:39;;;;;;;6.67;3.30;;;;;;;22.32;75.41;99677.56;1743261;80;21203;-68
2021/05/03 05:12:08;;;;;;;5.30;3.27;;;;;;;22.48;67.76;99679.05;1760659;80;21538;-67
2021/05/03 05:14:36;;;;;;;8.57;3.67;;;;;;;22.59;67.26;99667.82;1753715;80;21129;-68
2021/05/03 05:17:04;;;;;;;10.67;3.70;;;;;;;22.75;65.23;99671.94;1758506;80;21002;-67
2021/05/03 05:19:32;;;;;;;6.57;3.57;;;;;;;22.90;62.75;99660.40;1759245;80;21319;-68
2021/05/03 05:22:01;;;;;;;6.80;3.53;;;;;;;22.93;57.72;99651.91;1754245;80;21677;-67
2021/05/03 05:24:29;;;;;;;8.97;3.50;;;;;;;22.76;58.45;99648.28;1755558;80;21575;-66
2021/05/03 05:26:57;;;;;;;6.70;2.83;;;;;;;22.55;60.27;99648.98;1776532;79;21199;-67
2021/05/03 05:29:25;;;;;;;5.20;3.10;;;;;;;22.33;57.05;99639.31;1781298;78;21171;-66
2021/05/03 05:31:54;;;;;;;6.53;3.47;;;;;;;22.15;59.09;99638.62;1752263;79;21115;-68
2021/05/03 05:34:22;;;;;;;23.03;10.03;;;;;;;22.06;57.83;99641.83;1770581;79;21393;-68
2021/05/03 05:36:50;;;;;;;14.87;7.80;;;;;;;22.03;58.85;99644.23;1774798;79;21208;-67
2021/05/03 05:39:18;;;;;;;13.20;8.20;;;;;;;22.09;55.66;99632.53;1773194;79;22186;-66
2021/05/03 05:41:47;;;;;;;16.90;8.97;;;;;;;22.24;53.94;99637.78;1738860;80;21132;-68
2021/05/03 05:44:15;;;;;;;21.87;11.57;;;;;;;22.45;52.93;99638.96;1741057;80;21254;-67
2021/05/03 05:46:45;;;;;;;13.33;7.33;;;;;;;22.75;53.96;99633.95;1742945;80;21682;-71
2021/05/03 05:49:13;;;;;;;10.43;5.20;;;;;;;23.26;52.58;99642.28;1748494;80;21505;-63
2021/05/03 05:51:42;;;;;;;8.67;4.30;;;;;;;23.67;48.40;99643.72;1751197;80;21132;-68
2021/05/03 05:54:10;;;;;;;13.13;5.83;;;;;;;23.71;46.09;99632.75;1761859;80;21141;-67
2021/05/03 05:56:38;;;;;;;15.10;7.77;;;;;;;23.43;46.52;99635.72;1752732;81;21236;-67
2021/05/03 05:59:07;;;;;;;9.33;5.50;;;;;;;23.03;47.71;99637.20;1741735;80;22100;-66
2021/05/03 06:01:36;;;;;;;11.10;4.80;;;;;;;22.68;48.67;99633.48;1754687;80;21633;-68
2021/05/03 06:04:25;;;;;;;9.13;4.07;;;;;;;22.38;48.77;99638.48;1751383;80;21026;-70
2021/05/03 06:06:55;;;;;;;8.58;3.70;;;;;;;22.06;50.50;99634.41;1752254;80;21218;-67
2021/05/03 06:09:24;;;;;;;7.97;3.10;;;;;;;21.75;51.65;99622.61;1762853;80;21175;-67
2021/05/03 06:11:52;;;;;;;8.40;3.57;;;;;;;21.60;51.87;99627.44;1755087;80;21256;-67
2021/05/03 06:14:20;;;;;;;5.13;2.47;;;;;;;21.82;54.01;99624.95;1750665;80;21144;-66
2021/05/03 06:16:48;;;;;;;9.90;3.20;;;;;;;22.33;51.94;99625.50;1752130;80;21160;-64
2021/05/03 06:19:16;;;;;;;7.10;3.40;;;;;;;22.85;50.94;99615.27;1754302;79;21155;-67
2021/05/03 06:21:45;;;;;;;7.30;3.27;;;;;;;23.31;48.29;99608.20;1744255;80;21168;-66
2021/05/03 06:24:13;;;;;;;9.10;3.97;;;;;;;23.79;47.31;99605.53;1760786;79;22092;-68
2021/05/03 06:26:41;;;;;;;5.67;2.80;;;;;;;24.44;44.46;99602.23;1778130;78;21184;-65
2021/05/03 06:29:09;;;;;;;10.13;3.47;;;;;;;25.00;42.38;99597.25;1783784;78;21917;-67
2021/05/03 06:31:38;;;;;;;6.80;3.30;;;;;;;25.59;40.30;99585.48;1774702;79;22048;-67
2021/05/03 06:34:06;;;;;;;9.28;3.20;;;;;;;26.16;38.63;99587.97;1789548;77;21590;-65
2021/05/03 06:36:34;;;;;;;7.05;2.85;;;;;;;26.47;37.32;99593.17;1759386;78;21181;-67
2021/05/03 06:39:03;;;;;;;5.65;2.85;;;;;;;26.33;36.63;99589.19;1769048;77;21168;-67
2021/05/03 06:41:31;;;;;;;6.67;3.62;;;;;;;26.00;37.48;99589.42;1781941;77;21200;-68
2021/05/03 06:43:59;;;;;;;5.00;2.50;;;;;;;25.67;37.91;99590.11;1773811;78;21510;-67
2021/05/03 06:46:28;;;;;;;9.43;3.17;;;;;;;25.45;38.78;99580.94;1757016;79;21491;-66
2021/05/03 06:48:56;;;;;;;8.53;2.80;;;;;;;25.45;38.35;99578.81;1745034;80;22010;-69
2021/05/03 06:51:24;;;;;;;4.58;2.58;;;;;;;25.31;38.01;99580.73;1756584;80;21112;-70
2021/05/03 06:53:54;;;;;;;5.83;2.37;;;;;;;24.96;37.66;99577.08;1764867;80;21243;-67
2021/05/03 06:56:24;;;;;;;6.73;2.90;;;;;;;24.51;37.81;99567.47;1750065;80;21455;-68
2021/05/03 06:58:52;;;;;;;3.70;2.20;;;;;;;24.13;38.67;99574.70;1768695;78;21480;-67
2021/05/03 07:01:22;;;;;;;6.00;2.30;;;;;;;23.85;39.15;99575.09;1803217;79;21579;-69
2021/05/03 07:03:50;;;;;;;6.30;2.80;;;;;;;23.61;39.65;99578.32;1765942;78;21618;-68
2021/05/03 07:06:18;;;;;;;5.53;2.60;;;;;;;23.35;40.86;99568.53;1759986;79;21342;-67
2021/05/03 07:08:47;;;;;;;5.43;2.70;;;;;;;23.08;41.91;99561.92;1756810;81;21651;-67
2021/05/03 07:11:17;;;;;;;38.77;28.90;;;;;;;22.81;42.27;99599.09;1748347;80;21112;-69
2021/05/03 07:13:45;;;;;;;5.67;2.87;;;;;;;22.54;42.77;99582.84;1749663;80;21824;-66
2021/05/03 07:16:14;;;;;;;5.93;2.40;;;;;;;22.22;45.78;99584.16;1779883;78;21172;-66
2021/05/03 07:18:42;;;;;;;6.40;2.67;;;;;;;21.92;46.55;99571.05;1747472;79;21094;-65
2021/05/03 07:21:11;;;;;;;6.73;2.60;;;;;;;21.70;48.95;99572.75;1779337;78;21493;-63
2021/05/03 07:23:39;;;;;;;5.63;2.93;;;;;;;21.62;48.71;99580.75;1769461;78;21598;-66
2021/05/03 07:26:09;;;;;;;5.97;2.43;;;;;;;21.56;49.96;99587.16;1770549;78;21494;-64
2021/05/03 07:28:39;;;;;;;5.58;2.30;;;;;;;21.56;49.81;99583.97;1770995;77;25680;-65
2021/05/03 07:31:07;;;;;;;7.30;2.43;;;;;;;21.61;49.25;99578.63;1762023;79;21637;-65
2021/05/03 07:33:35;;;;;;;6.90;2.80;;;;;;;21.70;48.51;99576.73;1752944;80;23589;-66
2021/05/03 07:36:04;;;;;;;8.40;2.43;;;;;;;21.81;49.59;99586.23;1754537;80;21742;-64
2021/05/03 07:38:32;;;;;;;4.80;2.03;;;;;;;22.05;48.74;99583.19;1746107;80;21271;-64
2021/05/03 07:41:01;;;;;;;8.53;3.47;;;;;;;22.34;47.43;99571.31;1747588;80;21128;-66
2021/05/03 07:43:29;;;;;;;7.37;2.60;;;;;;;22.61;47.65;99573.23;1747212;79;21547;-66
2021/05/03 07:45:59;;;;;;;6.20;2.95;;;;;;;22.87;46.51;99575.13;1746458;80;22435;-65
2021/05/03 07:48:27;;;;;;;7.43;3.07;;;;;;;23.08;45.22;99566.45;1757208;80;21714;-65
2021/05/03 07:50:56;;;;;;;9.17;3.87;;;;;;;23.24;44.71;99561.99;1756999;80;21643;-63
2021/05/03 07:53:24;;;;;;;8.77;2.97;;;;;;;23.39;44.85;99564.22;1762123;78;21177;-65
2021/05/03 07:55:52;;;;;;;8.00;2.70;;;;;;;23.57;45.05;99558.15;1781834;77;21382;-66
2021/05/03 07:58:20;;;;;;;6.93;3.30;;;;;;;23.77;43.89;99561.89;1775137;79;21682;-66
2021/05/03 08:00:50;;;;;;;8.53;3.40;;;;;;;23.86;43.77;99559.36;1780194;78;21598;-67
2021/05/03 08:03:19;;;;;;;8.80;3.10;;;;;;;23.99;43.12;99556.53;1787724;77;21210;-66
2021/05/03 08:05:48;;;;;;;8.63;3.27;;;;;;;24.32;42.83;99553.89;1792775;78;21319;-65
2021/05/03 08:08:17;;;;;;;6.50;2.67;;;;;;;24.83;41.90;99550.39;1767718;77;21515;-69
2021/05/03 08:10:45;;;;;;;7.97;2.97;;;;;;;25.44;41.07;99543.34;1777615;78;21259;-67
2021/05/03 08:13:14;;;;;;;9.73;3.20;;;;;;;26.11;39.19;99544.03;1766260;79;21991;-65
2021/05/03 08:15:47;;;;;;;6.13;2.70;;;;;;;26.61;37.78;99539.09;1753519;80;21338;-64
2021/05/03 08:18:13;;;;;;;9.47;3.40;;;;;;;26.87;37.41;99530.64;1758656;80;21162;-65
2021/05/03 08:20:41;;;;;;;6.10;2.80;;;;;;;27.26;37.06;99536.29;1725164;81;21292;-68
2021/05/03 08:23:10;;;;;;;6.12;2.90;;;;;;;27.74;36.40;99528.20;1750760;80;21386;-70
2021/05/03 08:25:38;;;;;;;6.47;2.87;;;;;;;28.19;35.38;99523.05;1750541;79;22235;-66
2021/05/03 08:28:08;;;;;;;6.80;3.20;;;;;;;28.48;35.01;99523.14;1755963;80;21602;-65
2021/05/03 08:30:36;;;;;;;7.10;3.10;;;;;;;28.65;34.88;99511.58;1757293;79;21870;-67
2021/05/03 08:33:05;;;;;;;8.68;3.77;;;;;;;28.69;34.29;99509.05;1740112;81;21261;-67
2021/05/03 08:35:33;;;;;;;9.65;4.05;;;;;;;28.49;34.19;99503.28;1739734;81;21231;-66
2021/05/03 08:38:02;;;;;;;7.30;3.65;;;;;;;28.16;34.95;99503.02;1744063;80;21522;-65
2021/05/03 08:40:31;;;;;;;6.42;3.15;;;;;;;27.79;35.35;99498.57;1761373;79;21369;-67
2021/05/03 08:45:39;;;;;;;6.93;3.10;;;;;;;26.85;41.81;99499.39;1814864;78;22542;-64
2021/05/03 08:48:18;;;;;;;7.05;3.52;;;;;;;26.29;46.43;99498.70;1799438;79;21005;-65
2021/05/03 08:53:24;;;;;;;9.67;3.70;;;;;;;25.18;51.43;99480.94;1784093;77;21302;-65
2021/05/03 08:55:49;;;;;;;13.40;3.57;;;;;;;24.81;61.13;99495.23;1796685;78;21006;-64
2021/05/03 08:58:17;;;;;;;9.33;3.77;;;;;;;24.50;72.47;99493.92;1785798;79;20927;-67
2021/05/03 09:00:48;;;;;;;12.63;5.13;;;;;;;24.27;82.12;99492.96;1787141;79;21352;-65
2021/05/03 09:03:16;;;;;;;7.37;3.87;;;;;;;24.12;80.15;99486.56;1800359;79;22615;-63
2021/05/03 09:05:45;;;;;;;8.50;3.23;;;;;;;24.08;76.74;99483.45;1737575;81;20947;-65
2021/05/03 09:08:25;;;;;;;8.03;3.67;;;;;;;24.13;72.86;99470.86;1717150;82;21019;-68
2021/05/03 09:10:56;;;;;;;6.43;2.73;;;;;;;24.30;69.70;99472.95;1741637;80;21117;-65
2021/05/03 09:13:36;;;;;;;5.97;3.07;;;;;;;24.56;61.77;99472.54;1747202;81;21610;-65
2021/05/03 09:16:22;;;;;;;8.47;3.27;;;;;;;24.72;58.64;99467.95;1722715;82;22023;-67
2021/05/03 09:18:51;;;;;;;6.40;3.00;;;;;;;24.94;55.26;99477.92;1740588;82;21113;-65
2021/05/03 09:21:33;;;;;;;6.73;3.17;;;;;;;25.12;55.44;99480.27;1723537;82;21131;-65
2021/05/03 09:24:27;;;;;;;8.27;3.67;;;;;;;25.30;51.88;99487.88;1734742;81;21553;-68
2021/05/03 09:27:05;;;;;;;10.03;3.90;;;;;;;25.38;50.58;99493.86;1744817;80;21190;-66
2021/05/03 09:29:45;;;;;;;8.33;3.40;;;;;;;25.34;50.74;99500.86;1754136;80;22142;-65
2021/05/03 09:32:22;;;;;;;11.27;3.60;;;;;;;25.25;50.75;99501.33;1727580;81;21583;-63
2021/05/03 09:34:53;;;;;;;10.77;5.23;;;;;;;25.07;55.68;99506.20;1741981;81;21145;-67
2021/05/03 09:37:34;;;;;;;9.40;4.73;;;;;;;24.79;60.73;99500.88;1729347;81;21117;-64
2021/05/03 09:40:15;;;;;;;;;;;;;;;24.50;63.22;99500.59;1741460;81;21048;-65
2021/05/03 09:42:52;;;;;;;10.37;4.13;;;;;;;24.33;64.10;99492.90;1723591;81;21292;-66
2021/05/03 09:45:25;;;;;;;8.43;3.60;;;;;;;24.28;66.47;99489.75;1713407;82;21136;-65
2021/05/03 09:47:55;;;;;;;11.70;4.50;;;;;;;24.32;68.61;99481.97;1708288;82;21127;-68
2021/05/03 09:50:27;;;;;;;11.93;4.77;;;;;;;24.41;71.66;99480.27;1777286;79;21598;-66
2021/05/03 09:53:10;;;;;;;8.30;4.70;;;;;;;24.47;72.48;99474.56;1768286;79;21653;-65
2021/05/03 09:55:44;;;;;;;12.40;4.50;;;;;;;24.48;74.03;99470.80;1788596;79;21255;-68
2021/05/03 09:58:18;;;;;;;12.00;3.90;;;;;;;24.43;75.67;99462.88;1775886;79;21492;-66
2021/05/03 10:00:53;;;;;;;15.67;4.33;;;;;;;24.39;76.13;99461.11;1773869;79;20944;-66
2021/05/03 10:03:46;;;;;;;7.93;3.77;;;;;;;24.36;76.71;99458.48;1764834;79;21183;-67
2021/05/03 10:06:17;;;;;;;8.70;3.87;;;;;;;24.37;75.49;99456.59;1785236;79;21056;-65
2021/05/03 10:08:48;;;;;;;12.77;6.23;;;;;;;24.39;71.00;99451.23;1787246;79;21366;-65
2021/05/03 10:11:17;;;;;;;9.08;4.87;;;;;;;24.43;65.09;99450.89;1782789;79;21091;-68
2021/05/03 10:13:48;;;;;;;9.47;3.70;;;;;;;24.47;61.26;99443.92;1778843;79;22128;-66
2021/05/03 10:16:17;;;;;;;7.85;2.75;;;;;;;24.53;61.79;99445.94;1713866;82;21504;-65
2021/05/03 10:18:47;;;;;;;10.70;3.70;;;;;;;24.60;61.81;99440.22;1689481;81;21073;-66
2021/05/03 10:21:15;;;;;;;9.37;3.20;;;;;;;24.66;62.51;99443.83;1739568;81;22755;-67
2021/05/03 10:23:45;;;;;;;7.83;3.73;;;;;;;24.70;63.04;99445.33;1738708;81;21496;-64
2021/05/03 10:26:14;;;;;;;9.43;3.93;;;;;;;24.71;65.44;99440.27;1723036;82;21603;-64
2021/05/03 10:28:52;;;;;;;6.03;3.47;;;;;;;24.68;66.69;99432.86;1794633;79;20932;-67
2021/05/03 10:31:22;;;;;;;9.30;4.90;;;;;;;24.64;68.37;99432.66;1784673;79;21361;-64
2021/05/03 10:33:50;;;;;;;7.60;3.27;;;;;;;24.56;66.96;99440.56;1725971;82;21207;-64
2021/05/03 10:36:38;;;;;;;13.43;3.30;;;;;;;24.43;70.66;99429.58;1716111;82;21147;-63
2021/05/03 10:39:30;;;;;;;8.73;3.90;;;;;;;24.39;69.90;99427.26;1725469;82;21827;-64
2021/05/03 10:42:04;;;;;;;7.87;3.57;;;;;;;24.40;68.51;99426.20;1744407;81;21498;-64
2021/05/03 10:44:32;;;;;;;7.63;3.57;;;;;;;24.54;66.53;99422.19;1734481;81;21553;-64
2021/05/03 10:47:22;;;;;;;9.90;3.33;;;;;;;24.67;63.57;99425.96;1763325;81;21498;-64
2021/05/03 10:49:50;;;;;;;7.17;3.20;;;;;;;24.79;62.63;99423.58;1756920;81;21602;-66
2021/05/03 10:52:31;;;;;;;8.20;3.40;;;;;;;24.97;62.76;99421.34;1719979;81;21346;-64
2021/05/03 10:54:59;;;;;;;9.38;3.15;;;;;;;25.13;63.18;99413.05;1759279;81;21152;-64
2021/05/03 10:57:32;;;;;;;8.20;3.70;;;;;;;25.39;64.29;99420.73;1754065;80;21535;-67
2021/05/03 11:00:01;;;;;;;7.67;3.73;;;;;;;25.68;62.08;99416.33;1727755;81;21380;-66
2021/05/03 11:02:43;;;;;;;9.17;3.20;;;;;;;25.95;59.59;99410.09;1735433;82;21212;-63
2021/05/03 11:08:10;;;;;;;7.47;3.17;;;;;;;26.29;55.44;99414.55;1802773;78;22852;-64
2021/05/03 11:11:04;;;;;;;11.17;3.33;;;;;;;26.16;54.34;99424.24;1768419;79;21565;-65
2021/05/03 11:13:43;;;;;;;40.63;36.10;;;;;;;26.00;52.88;99418.51;1786344;79;21340;-66
2021/05/03 11:16:32;;;;;;;7.93;5.60;;;;;;;25.80;56.96;99418.47;1788203;79;21006;-62
2021/05/03 11:19:04;;;;;;;8.15;3.70;;;;;;;25.67;64.01;99411.27;1777047;79;21367;-64
2021/05/03 11:21:47;;;;;;;8.57;3.63;;;;;;;25.54;55.74;99410.80;1763777;79;21136;-66
2021/05/03 11:24:24;;;;;;;6.90;3.17;;;;;;;25.51;52.70;99407.40;1770077;79;20967;-66
2021/05/03 11:30:14;;;;;;;9.17;4.07;;;;;;;25.87;50.26;99398.78;1788932;79;21556;-65
2021/05/03 11:32:00;;;;;;;9.80;3.50;;;;;;;26.24;48.01;99386.09;1764308;79;20985;-69
2021/05/03 11:34:35;;;;;;;8.73;3.00;;;;;;;26.54;46.49;99383.72;1791616;79;21178;-63
2021/05/03 11:45:17;;;;;;;6.17;3.00;;;;;;;26.59;42.22;99376.87;1735282;79;21396;-68
2021/05/03 11:47:46;;;;;;;8.43;3.53;;;;;;;26.67;41.94;99375.59;1746536;79;21061;-63
2021/05/03 11:50:20;;;;;;;5.97;2.90;;;;;;;26.63;41.88;99372.48;1785460;79;21078;-63
2021/05/03 11:52:48;;;;;;;7.13;3.50;;;;;;;26.56;42.00;99368.17;1805145;78;20950;-67
2021/05/03 11:55:22;;;;;;;7.40;3.33;;;;;;;26.41;41.35;99362.13;1743997;80;21034;-67
2021/05/03 11:57:51;;;;;;;6.47;3.83;;;;;;;26.23;41.42;99361.81;1733817;82;22124;-65
2021/05/03 12:00:22;;;;;;;6.30;3.00;;;;;;;26.10;41.51;99362.69;1767958;80;21029;-64
2021/05/03 12:03:06;;;;;;;7.97;2.83;;;;;;;25.98;41.84;99363.82;1769602;80;20939;-66
2021/05/03 12:05:35;;;;;;;7.80;3.50;;;;;;;25.82;42.45;99363.42;1736439;80;21312;-65
2021/05/03 12:08:14;;;;;;;9.30;3.90;;;;;;;25.63;42.18;99362.27;1742215;81;20943;-67
2021/05/03 12:10:42;;;;;;;8.77;3.13;;;;;;;25.42;42.78;99353.43;1738144;82;21282;-70
2021/05/03 12:13:15;;;;;;;5.93;2.50;;;;;;;25.24;42.77;99353.05;1756772;80;21034;-67
2021/05/03 12:15:43;;;;;;;7.43;2.80;;;;;;;25.06;43.70;99369.42;1768122;80;21195;-67
2021/05/03 12:18:18;;;;;;;7.97;3.10;;;;;;;24.94;43.70;99363.28;1725249;82;20990;-66
2021/05/03 12:20:46;;;;;;;5.27;2.60;;;;;;;24.83;44.48;99358.47;1752035;81;21121;-68
2021/05/03 12:23:15;;;;;;;7.60;2.90;;;;;;;24.79;45.57;99352.95;1749788;81;21312;-67
2021/05/03 12:25:53;;;;;;;6.20;2.67;;;;;;;24.83;45.92;99353.92;1754681;81;21089;-65
2021/05/03 12:28:24;;;;;;;6.37;3.23;;;;;;;24.89;45.06;99342.08;1751748;81;21010;-73
2021/05/03 12:30:58;;;;;;;6.50;2.70;;;;;;;24.94;44.86;99339.84;1748008;81;21211;-67
2021/05/03 12:33:27;;;;;;;9.23;2.80;;;;;;;24.96;45.31;99334.98;1742151;81;21160;-68
2021/05/03 12:35:56;;;;;;;7.13;3.30;;;;;;;24.99;45.33;99328.50;1742293;81;21555;-66
2021/05/03 12:38:28;;;;;;;6.80;2.83;;;;;;;25.05;45.55;99321.19;1690287;82;21619;-68
2021/05/03 12:40:58;;;;;;;6.77;2.73;;;;;;;25.11;45.10;99321.33;1747499;80;21184;-67
2021/05/03 12:43:33;;;;;;;6.22;3.42;;;;;;;25.16;45.00;99325.23;1775493;80;21215;-65
2021/05/03 12:46:06;;;;;;;6.53;2.97;;;;;;;25.17;45.00;99324.68;1720854;82;21138;-70
2021/05/03 12:48:48;;;;;;;4.90;2.50;;;;;;;25.14;44.94;99311.95;1745924;81;21411;-66
2021/05/03 13:10:35;;;;;;;7.70;3.17;;;;;;;24.69;47.22;99308.63;1747240;80;21144;-65
2021/05/03 13:29:45;;;;;;;7.40;4.37;;;;;;;24.86;47.75;99290.69;1751262;81;21521;-68
2021/05/03 13:32:20;;;;;;;8.57;5.07;;;;;;;24.94;47.77;99295.30;1754149;81;21156;-69
2021/05/03 13:34:49;;;;;;;8.40;3.80;;;;;;;24.99;46.68;99289.05;1738814;80;20964;-67
2021/05/03 13:37:18;;;;;;;9.30;3.73;;;;;;;24.99;47.00;99287.72;1734581;82;21077;-67
2021/05/03 13:39:49;;;;;;;16.23;3.72;;;;;;;25.00;46.84;99288.77;1740037;82;21159;-69
2021/05/03 13:42:17;;;;;;;5.50;2.83;;;;;;;24.99;46.74;99285.84;1728882;81;21426;-64
2021/05/03 13:44:46;;;;;;;7.03;3.30;;;;;;;24.99;46.36;99285.84;1755638;80;21496;-71
2021/05/03 13:47:14;;;;;;;7.23;3.43;;;;;;;24.97;46.42;99281.92;1741503;80;21172;-66
2021/05/03 13:49:43;;;;;;;8.50;3.30;;;;;;;24.93;46.51;99285.73;1795106;79;21645;-67
2021/05/03 13:52:11;;;;;;;12.17;4.13;;;;;;;24.89;46.90;99279.43;1782400;79;21473;-65
2021/05/03 13:54:41;;;;;;;8.03;2.87;;;;;;;24.86;46.62;99280.03;1804000;78;21344;-68
2021/05/03 13:57:09;;;;;;;7.30;3.40;;;;;;;24.85;46.25;99278.45;1804546;79;21231;-66
2021/05/03 13:59:38;;;;;;;8.63;4.40;;;;;;;24.84;46.11;99262.75;1791531;78;20995;-66
2021/05/03 14:02:08;;;;;;;10.93;3.90;;;;;;;24.85;45.11;99270.46;1784963;78;21010;-67
2021/05/03 14:04:37;;;;;;;8.58;2.87;;;;;;;24.83;44.88;99273.95;1791658;79;21124;-66
2021/05/03 14:07:08;;;;;;;16.53;8.20;;;;;;;24.83;45.02;99275.84;1781862;78;21480;-64
2021/05/03 14:09:36;;;;;;;;;;;;;;;24.84;45.07;99266.20;1797073;78;21184;-66
2021/05/03 14:12:05;;;;;;;16.77;7.40;;;;;;;24.89;45.41;99274.62;1794012;78;20167;-66
2021/05/03 14:14:35;;;;;;;29.17;13.10;;;;;;;24.90;45.53;99270.34;1795934;78;21048;-65
2021/05/03 14:17:07;;;;;;;11.93;5.80;;;;;;;24.92;45.54;99269.47;1794147;78;21184;-65
2021/05/03 14:19:38;;;;;;;18.27;8.80;;;;;;;24.90;45.62;99266.88;1787698;79;21226;-67
2021/05/03 14:22:05;;;;;;;17.53;9.47;;;;;;;24.85;45.43;99273.12;1744152;82;21058;-66
2021/05/03 14:24:33;;;;;;;18.43;11.10;;;;;;;24.80;45.80;99269.22;1793139;78;21003;-64
2021/05/03 14:27:01;;;;;;;20.80;12.37;;;;;;;24.77;46.78;99269.81;1741165;81;21142;-67
2021/05/03 14:32:18;;;;;;;7.73;3.70;;;;;;;25.01;47.12;99261.56;1826170;77;26643;-70
2021/05/03 14:34:39;;;;;;;7.00;3.22;;;;;;;25.09;47.04;99257.38;1788211;78;21019;-65
2021/05/03 14:37:07;;;;;;;12.57;8.63;;;;;;;25.11;46.66;99253.33;1793780;78;21138;-66
2021/05/03 14:39:36;;;;;;;11.10;4.83;;;;;;;25.04;47.04;99253.48;1803346;79;21784;-68
2021/05/03 14:42:05;;;;;;;7.50;3.10;;;;;;;24.92;47.64;99255.36;1799506;79;21027;-68
2021/05/03 14:44:34;;;;;;;9.17;3.70;;;;;;;24.80;48.47;99263.89;1781634;79;21456;-67
2021/05/03 14:47:07;;;;;;;12.13;3.70;;;;;;;24.73;52.52;99259.52;1806354;79;21002;-67
2021/05/03 14:49:45;;;;;;;8.30;3.55;;;;;;;24.67;58.31;99262.86;1800213;79;21360;-66
2021/05/03 14:52:10;;;;;;;9.70;4.00;;;;;;;24.58;61.67;99266.52;1804615;78;21065;-66
2021/05/03 14:54:42;;;;;;;12.87;3.97;;;;;;;24.45;65.39;99270.25;1805058;79;21068;-68
2021/05/03 14:57:13;;;;;;;12.20;5.03;;;;;;;24.33;70.54;99270.50;1798902;79;21194;-67
2021/05/03 14:59:42;;;;;;;6.90;3.70;;;;;;;24.10;75.47;99258.44;1791864;79;21596;-69
2021/05/03 15:02:11;;;;;;;10.40;3.90;;;;;;;23.82;80.22;99256.84;1801433;79;21216;-65
2021/05/03 15:04:40;;;;;;;10.23;4.80;;;;;;;23.53;85.53;99271.17;1794325;79;21128;-66
2021/05/03 15:09:51;;;;;;;8.47;4.47;;;;;;;23.00;97.07;99271.50;1749432;79;26797;-65
2021/05/03 15:12:28;;;;;;;11.63;5.73;;;;;;;22.73;100.00;99277.41;1738788;82;21010;-64
2021/05/03 15:15:09;;;;;;;9.77;4.93;;;;;;;22.48;100.00;99278.02;1734564;82;21423;-63
2021/05/03 15:17:47;;;;;;;14.07;5.70;;;;;;;22.29;100.00;99277.20;1680137;85;21045;-65
2021/05/03 15:22:55;;;;;;;9.43;4.57;;;;;;;22.04;100.00;99284.34;1689820;84;21654;-66
2021/05/03 15:25:25;;;;;;;9.70;5.03;;;;;;;21.91;100.00;99283.70;1689519;84;21097;-66
2021/05/03 15:33:41;;;;;;;;;;;;;;;21.44;100.00;99295.81;1770451;79;21029;-67
2021/05/03 15:35:50;;;;;;;7.53;3.50;;;;;;;21.21;100.00;99281.36;1783862;79;22188;-68
2021/05/03 15:38:18;;;;;;;6.67;3.27;;;;;;;20.97;100.00;99288.44;1784126;79;21025;-69
2021/05/03 15:40:47;;;;;;;10.30;3.33;;;;;;;20.77;100.00;99288.82;1781307;79;21671;-67
2021/05/03 15:43:19;;;;;;;13.23;4.00;;;;;;;20.66;100.00;99287.28;1780280;79;21152;-69
2021/05/03 15:45:50;;;;;;;10.23;4.30;;;;;;;20.53;100.00;99289.19;1789011;79;21367;-66
2021/05/03 15:48:18;;;;;;;9.55;4.92;;;;;;;20.40;100.00;99295.84;1781082;79;21630;-68
2021/05/03 15:50:52;;;;;;;10.93;5.23;;;;;;;20.26;100.00;99300.13;1779431;79;21662;-69
2021/05/03 15:53:20;;;;;;;11.23;5.10;;;;;;;20.11;100.00;99290.38;1783914;79;21002;-70
2021/05/03 15:55:49;;;;;;;10.73;5.23;;;;;;;19.97;100.00;99292.81;1791476;79;22304;-70
2021/05/03 15:58:18;;;;;;;9.60;5.13;;;;;;;19.86;100.00;99291.25;1727185;82;22330;-68
2021/05/03 16:00:46;;;;;;;11.53;5.87;;;;;;;19.78;100.00;99292.59;1714618;82;22241;-68
2021/05/03 16:03:17;;;;;;;13.03;6.22;;;;;;;19.72;100.00;99292.85;1722284;80;21058;-70
2021/05/03 16:05:47;;;;;;;9.10;5.30;;;;;;;19.64;100.00;99294.18;1748877;80;21390;-71
2021/05/03 16:08:15;;;;;;;12.93;6.20;;;;;;;19.56;100.00;99294.16;1725420;82;21291;-68
2021/05/03 16:10:44;;;;;;;8.77;4.93;;;;;;;19.49;100.00;99290.98;1720049;82;21231;-68
2021/05/03 16:13:13;;;;;;;9.60;5.03;;;;;;;19.44;100.00;99283.86;1720867;82;21343;-69
2021/05/03 16:15:41;;;;;;;9.97;4.90;;;;;;;19.39;100.00;99273.80;1716959;82;21531;-65
2021/05/03 16:18:10;;;;;;;9.83;5.07;;;;;;;19.34;100.00;99289.66;1725512;82;21141;-66
2021/05/03 16:20:38;;;;;;;7.83;4.53;;;;;;;19.30;100.00;99289.94;1721289;82;21216;-65
2021/05/03 16:23:07;;;;;;;10.20;4.93;;;;;;;19.27;100.00;99277.24;1718014;82;21655;-69
2021/05/03 16:25:36;;;;;;;8.43;4.57;;;;;;;19.24;100.00;99273.80;1717550;82;22586;-65
2021/05/03 16:28:05;;;;;;;10.57;4.80;;;;;;;19.20;100.00;99278.28;1729175;82;21122;-70
2021/05/03 16:30:35;;;;;;;8.40;4.53;;;;;;;19.16;100.00;99282.51;1717699;82;21232;-66
2021/05/03 16:33:05;;;;;;;10.80;5.30;;;;;;;19.12;100.00;99274.84;1733662;82;21661;-70
2021/05/03 16:35:33;;;;;;;9.90;4.13;;;;;;;19.08;100.00;99280.39;1717924;82;21268;-67
2021/05/03 16:38:03;;;;;;;7.40;3.70;;;;;;;19.02;100.00;99289.91;1712984;82;21228;-66
2021/05/03 16:40:33;;;;;;;8.47;4.20;;;;;;;18.95;100.00;99295.44;1786879;79;21260;-66
2021/05/03 16:43:02;;;;;;;6.97;4.17;;;;;;;18.88;100.00;99306.78;1785493;79;21785;-69
2021/05/03 16:45:31;;;;;;;11.00;4.40;;;;;;;18.80;100.00;99303.33;1784883;78;21220;-69
2021/05/03 16:48:01;;;;;;;9.93;4.00;;;;;;;18.72;100.00;99304.62;1792938;79;21238;-65
2021/05/03 16:50:29;;;;;;;28.47;19.03;;;;;;;18.62;100.00;99306.67;1782792;79;21365;-64
2021/05/03 16:52:58;;;;;;;19.67;12.73;;;;;;;18.52;100.00;99309.26;1791834;79;20935;-69
2021/05/03 16:55:27;;;;;;;7.60;4.87;;;;;;;18.44;100.00;99300.52;1778252;78;21134;-65
2021/05/03 16:57:56;;;;;;;12.20;8.03;;;;;;;18.35;100.00;99300.23;1794180;79;21006;-65
2021/05/03 17:00:25;;;;;;;74.50;58.60;;;;;;;18.27;100.00;99306.53;1782809;79;21097;-64
2021/05/03 17:02:53;;;;;;;10.60;7.03;;;;;;;18.16;100.00;99307.00;1796041;79;22344;-70
2021/05/03 17:05:22;;;;;;;10.07;5.93;;;;;;;18.07;100.00;99321.20;1785532;79;21575;-71
2021/05/03 17:07:50;;;;;;;9.80;5.57;;;;;;;17.98;100.00;99320.07;1797257;79;21531;-66
2021/05/03 17:10:19;;;;;;;9.97;5.87;;;;;;;17.90;100.00;99327.94;1783960;79;21161;-65
2021/05/03 17:12:48;;;;;;;6.07;4.47;;;;;;;17.83;100.00;99335.27;1784295;79;21491;-66
2021/05/03 17:15:17;;;;;;;8.13;4.27;;;;;;;17.79;100.00;99336.02;1786278;79;22734;-68
2021/05/03 17:17:45;;;;;;;7.40;4.50;;;;;;;17.73;100.00;99337.81;1782595;79;21197;-65
2021/05/03 17:20:14;;;;;;;7.10;4.43;;;;;;;17.66;100.00;99340.66;1785066;79;21059;-66
2021/05/03 17:22:42;;;;;;;7.30;4.10;;;;;;;17.60;100.00;99342.97;1779104;78;21200;-67
2021/05/03 17:25:12;;;;;;;6.47;4.07;;;;;;;17.54;100.00;99345.30;1785296;79;21196;-72
2021/05/03 17:27:40;;;;;;;7.13;4.30;;;;;;;17.48;100.00;99356.31;1778528;78;21561;-68
2021/05/03 17:30:11;;;;;;;9.33;5.17;;;;;;;17.43;100.00;99360.75;1769531;79;21698;-66
2021/05/03 17:32:41;;;;;;;8.47;4.97;;;;;;;17.37;100.00;99356.47;1771063;78;21046;-71
2021/05/03 17:35:11;;;;;;;6.83;4.30;;;;;;;17.32;100.00;99363.02;1779399;79;21621;-67
2021/05/03 17:37:39;;;;;;;7.53;4.13;;;;;;;17.26;100.00;99364.27;1701968;82;21411;-65
2021/05/03 17:40:09;;;;;;;7.33;4.30;;;;;;;17.28;100.00;99367.19;1720216;82;22126;-65
2021/05/03 17:42:38;;;;;;;8.20;4.92;;;;;;;17.26;100.00;99371.38;1719972;82;21079;-70
2021/05/03 17:45:09;;;;;;;6.50;4.50;;;;;;;17.25;100.00;99371.90;1704220;83;21255;-66
2021/05/03 17:47:38;;;;;;;8.00;4.70;;;;;;;17.24;100.00;99371.63;1715846;81;21177;-65
2021/05/03 17:50:09;;;;;;;7.97;4.03;;;;;;;17.23;100.00;99362.13;1709914;82;21209;-67
2021/05/03 17:52:38;;;;;;;7.87;4.60;;;;;;;17.22;100.00;99367.13;1769762;79;21189;-71
2021/05/03 17:55:09;;;;;;;8.20;4.90;;;;;;;17.21;100.00;99366.86;1767459;79;21459;-65